sensor_id;sensor_type;location;lat;lon;timestamp;temperature;humidity
20845;DHT22;10583;49.084;8.646;2023-03-01T00:00:00;-0.40;99.90
20845;DHT22;10583;49.084;8.646;2023-03-01T00:02:26;-0.40;99.90
20845;DHT22;10583;49.084;8.646;2023-03-01T00:04:54;-0.40;99.90
20845;DHT22;10583;49.084;8.646;2023-03-01T00:07:21;-0.40;99.90
20845;DHT22;10583;49.084;8.646;2023-03-01T00:09:48;-0.40;99.90
20845;DHT22;10583;49.084;8.646;2023-03-01T00:12:15;-0.40;99.90
20845;DHT22;10583;49.084;8.646;2023-03-01T00:14:41;-0.40;99.90
20845;DHT22;10583;49.084;8.646;2023-03-01T00:17:08;-0.40;99.90
20845;DHT22;10583;49.084;8.646;2023-03-01T00:19:35;-0.50;99.90
20845;DHT22;10583;49.084;8.646;2023-03-01T00:22:03;-0.50;99.90
20845;DHT22;10583;49.084;8.646;2023-03-01T00:24:29;-0.50;99.90
20845;DHT22;10583;49.084;8.646;2023-03-01T00:26:56;-0.50;99.90
20845;DHT22;10583;49.084;8.646;2023-03-01T00:29:23;-0.50;99.90
20845;DHT22;10583;49.084;8.646;2023-03-01T00:31:50;-0.60;99.90
20845;DHT22;10583;49.084;8.646;2023-03-01T00:34:17;-0.60;99.90
20845;DHT22;10583;49.084;8.646;2023-03-01T00:36:43;-0.60;99.90
20845;DHT22;10583;49.084;8.646;2023-03-01T00:39:13;-0.60;99.90
20845;DHT22;10583;49.084;8.646;2023-03-01T00:41:41;-0.50;99.90
20845;DHT22;10583;49.084;8.646;2023-03-01T00:44:08;-0.50;99.90
20845;DHT22;10583;49.084;8.646;2023-03-01T00:46:35;-0.50;99.90
20845;DHT22;10583;49.084;8.646;2023-03-01T00:49:02;-0.50;99.90
20845;DHT22;10583;49.084;8.646;2023-03-01T00:51:30;-0.50;99.90
20845;DHT22;10583;49.084;8.646;2023-03-01T00:53:59;-0.40;99.90
20845;DHT22;10583;49.084;8.646;2023-03-01T00:56:28;-0.40;99.90
20845;DHT22;10583;49.084;8.646;2023-03-01T00:58:55;-0.40;99.90
20845;DHT22;10583;49.084;8.646;2023-03-01T01:01:24;-0.40;99.90
20845;DHT22;10583;49.084;8.646;2023-03-01T01:03:55;-0.50;99.90
20845;DHT22;10583;49.084;8.646;2023-03-01T01:06:24;-0.50;99.90
20845;DHT22;10583;49.084;8.646;2023-03-01T01:08:51;-0.50;99.90
20845;DHT22;10583;49.084;8.646;2023-03-01T01:11:19;-0.50;99.90
20845;DHT22;10583;49.084;8.646;2023-03-01T01:13:48;-0.50;99.90
20845;DHT22;10583;49.084;8.646;2023-03-01T01:16:16;-0.40;99.90
20845;DHT22;10583;49.084;8.646;2023-03-01T01:18:43;-0.50;99.90
20845;DHT22;10583;49.084;8.646;2023-03-01T01:21:12;-0.50;99.90
20845;DHT22;10583;49.084;8.646;2023-03-01T01:23:40;-0.40;99.90
20845;DHT22;10583;49.084;8.646;2023-03-01T01:26:09;-0.40;99.90
20845;DHT22;10583;49.084;8.646;2023-03-01T01:28:36;-0.40;99.90
20845;DHT22;10583;49.084;8.646;2023-03-01T01:31:05;-0.30;99.90
20845;DHT22;10583;49.084;8.646;2023-03-01T01:33:32;-0.30;99.90
20845;DHT22;10583;49.084;8.646;2023-03-01T01:35:59;-0.30;99.90
20845;DHT22;10583;49.084;8.646;2023-03-01T01:38:26;-0.40;99.90
20845;DHT22;10583;49.084;8.646;2023-03-01T01:40:53;-0.40;99.90
20845;DHT22;10583;49.084;8.646;2023-03-01T01:43:22;-0.40;99.90
20845;DHT22;10583;49.084;8.646;2023-03-01T01:45:49;-0.40;99.90
20845;DHT22;10583;49.084;8.646;2023-03-01T01:48:20;-0.40;99.90
20845;DHT22;10583;49.084;8.646;2023-03-01T01:50:53;-0.40;99.90
20845;DHT22;10583;49.084;8.646;2023-03-01T01:53:21;-0.40;99.90
20845;DHT22;10583;49.084;8.646;2023-03-01T01:55:53;-0.30;99.90
20845;DHT22;10583;49.084;8.646;2023-03-01T01:58:24;-0.30;99.90
20845;DHT22;10583;49.084;8.646;2023-03-01T02:00:53;-0.30;99.90
20845;DHT22;10583;49.084;8.646;2023-03-01T02:03:24;-0.40;99.90
20845;DHT22;10583;49.084;8.646;2023-03-01T02:05:57;-0.40;99.90
20845;DHT22;10583;49.084;8.646;2023-03-01T02:08:28;-0.40;99.90
20845;DHT22;10583;49.084;8.646;2023-03-01T02:10:56;-0.40;99.90
20845;DHT22;10583;49.084;8.646;2023-03-01T02:13:25;-0.40;99.90
20845;DHT22;10583;49.084;8.646;2023-03-01T02:15:52;-0.40;99.90
20845;DHT22;10583;49.084;8.646;2023-03-01T02:18:22;-0.40;99.90
20845;DHT22;10583;49.084;8.646;2023-03-01T02:20:58;-0.40;99.90
20845;DHT22;10583;49.084;8.646;2023-03-01T02:23:28;-0.40;99.90
20845;DHT22;10583;49.084;8.646;2023-03-01T02:25:59;-0.50;99.90
20845;DHT22;10583;49.084;8.646;2023-03-01T02:28:31;-0.50;99.90
20845;DHT22;10583;49.084;8.646;2023-03-01T02:30:58;-0.50;99.90
20845;DHT22;10583;49.084;8.646;2023-03-01T02:33:44;-0.50;99.90
20845;DHT22;10583;49.084;8.646;2023-03-01T02:36:16;-0.60;99.90
20845;DHT22;10583;49.084;8.646;2023-03-01T02:38:43;-0.60;99.90
20845;DHT22;10583;49.084;8.646;2023-03-01T02:41:12;-0.60;99.90
20845;DHT22;10583;49.084;8.646;2023-03-01T02:43:41;-0.60;99.90
20845;DHT22;10583;49.084;8.646;2023-03-01T02:46:14;-0.60;99.90
20845;DHT22;10583;49.084;8.646;2023-03-01T02:48:43;-0.70;99.90
20845;DHT22;10583;49.084;8.646;2023-03-01T02:51:22;-0.70;99.90
20845;DHT22;10583;49.084;8.646;2023-03-01T02:53:59;-0.70;99.90
20845;DHT22;10583;49.084;8.646;2023-03-01T02:56:31;-0.70;99.90
20845;DHT22;10583;49.084;8.646;2023-03-01T02:58:59;-0.70;99.90
20845;DHT22;10583;49.084;8.646;2023-03-01T03:01:28;-0.80;99.90
20845;DHT22;10583;49.084;8.646;2023-03-01T03:04:02;-0.80;99.90
20845;DHT22;10583;49.084;8.646;2023-03-01T03:06:29;-0.80;99.90
20845;DHT22;10583;49.084;8.646;2023-03-01T03:08:56;-0.80;99.90
20845;DHT22;10583;49.084;8.646;2023-03-01T03:11:23;-0.80;99.90
20845;DHT22;10583;49.084;8.646;2023-03-01T03:13:50;-0.80;99.90
20845;DHT22;10583;49.084;8.646;2023-03-01T03:16:19;-0.90;99.90
20845;DHT22;10583;49.084;8.646;2023-03-01T03:18:46;-0.90;99.90
20845;DHT22;10583;49.084;8.646;2023-03-01T03:21:14;-0.90;99.90
20845;DHT22;10583;49.084;8.646;2023-03-01T03:23:41;-0.90;99.90
20845;DHT22;10583;49.084;8.646;2023-03-01T03:26:08;-1.00;99.90
20845;DHT22;10583;49.084;8.646;2023-03-01T03:28:39;-1.00;99.90
20845;DHT22;10583;49.084;8.646;2023-03-01T03:31:06;-1.00;99.90
20845;DHT22;10583;49.084;8.646;2023-03-01T03:33:35;-1.10;99.90
20845;DHT22;10583;49.084;8.646;2023-03-01T03:36:02;-1.10;99.90
20845;DHT22;10583;49.084;8.646;2023-03-01T03:38:29;-1.20;99.90
20845;DHT22;10583;49.084;8.646;2023-03-01T03:41:01;-1.30;99.90
20845;DHT22;10583;49.084;8.646;2023-03-01T03:43:30;-1.60;99.90
20845;DHT22;10583;49.084;8.646;2023-03-01T03:45:57;-1.80;99.90
20845;DHT22;10583;49.084;8.646;2023-03-01T03:48:25;-1.90;99.90
20845;DHT22;10583;49.084;8.646;2023-03-01T03:50:55;-2.00;99.90
20845;DHT22;10583;49.084;8.646;2023-03-01T03:53:23;-2.00;99.90
20845;DHT22;10583;49.084;8.646;2023-03-01T03:55:50;-2.10;99.90
20845;DHT22;10583;49.084;8.646;2023-03-01T03:58:19;-2.20;99.90
20845;DHT22;10583;49.084;8.646;2023-03-01T04:00:47;-2.30;99.90
20845;DHT22;10583;49.084;8.646;2023-03-01T04:03:16;-2.40;99.90
20845;DHT22;10583;49.084;8.646;2023-03-01T04:05:44;-2.40;99.90
20845;DHT22;10583;49.084;8.646;2023-03-01T04:08:13;-2.50;99.90
20845;DHT22;10583;49.084;8.646;2023-03-01T04:10:42;-2.60;99.90
20845;DHT22;10583;49.084;8.646;2023-03-01T04:13:11;-2.70;99.90
20845;DHT22;10583;49.084;8.646;2023-03-01T04:15:38;-2.90;99.90
20845;DHT22;10583;49.084;8.646;2023-03-01T04:18:06;-2.90;99.90
20845;DHT22;10583;49.084;8.646;2023-03-01T04:20:34;-3.00;99.90
20845;DHT22;10583;49.084;8.646;2023-03-01T04:23:05;-3.10;99.90
20845;DHT22;10583;49.084;8.646;2023-03-01T04:25:41;-3.10;99.90
20845;DHT22;10583;49.084;8.646;2023-03-01T04:28:08;-3.10;99.90
20845;DHT22;10583;49.084;8.646;2023-03-01T04:30:35;-3.10;99.90
20845;DHT22;10583;49.084;8.646;2023-03-01T04:33:03;-3.10;99.90
20845;DHT22;10583;49.084;8.646;2023-03-01T04:35:30;-3.20;99.90
20845;DHT22;10583;49.084;8.646;2023-03-01T04:37:57;-3.20;99.90
20845;DHT22;10583;49.084;8.646;2023-03-01T04:40:24;-3.20;99.90
20845;DHT22;10583;49.084;8.646;2023-03-01T04:42:52;-3.20;99.90
20845;DHT22;10583;49.084;8.646;2023-03-01T04:45:19;-3.30;99.90
20845;DHT22;10583;49.084;8.646;2023-03-01T04:47:46;-3.30;99.90
20845;DHT22;10583;49.084;8.646;2023-03-01T04:50:14;-3.50;99.90
20845;DHT22;10583;49.084;8.646;2023-03-01T04:52:42;-3.50;99.90
20845;DHT22;10583;49.084;8.646;2023-03-01T04:55:09;-3.60;99.90
20845;DHT22;10583;49.084;8.646;2023-03-01T04:57:36;-3.50;99.90
20845;DHT22;10583;49.084;8.646;2023-03-01T05:00:06;-3.50;99.90
20845;DHT22;10583;49.084;8.646;2023-03-01T05:02:46;-3.50;99.90
20845;DHT22;10583;49.084;8.646;2023-03-01T05:05:14;-3.50;99.90
20845;DHT22;10583;49.084;8.646;2023-03-01T05:07:41;-3.60;99.90
20845;DHT22;10583;49.084;8.646;2023-03-01T05:10:08;-3.50;99.90
20845;DHT22;10583;49.084;8.646;2023-03-01T05:12:35;-3.60;99.90
20845;DHT22;10583;49.084;8.646;2023-03-01T05:15:05;-3.70;99.90
20845;DHT22;10583;49.084;8.646;2023-03-01T05:17:32;-3.70;99.90
20845;DHT22;10583;49.084;8.646;2023-03-01T05:19:59;-3.60;99.90
20845;DHT22;10583;49.084;8.646;2023-03-01T05:22:26;-3.60;99.90
20845;DHT22;10583;49.084;8.646;2023-03-01T05:24:53;-3.60;99.90
20845;DHT22;10583;49.084;8.646;2023-03-01T05:27:20;-3.70;99.90
20845;DHT22;10583;49.084;8.646;2023-03-01T05:29:48;-3.70;99.90
20845;DHT22;10583;49.084;8.646;2023-03-01T05:32:16;-3.60;99.90
20845;DHT22;10583;49.084;8.646;2023-03-01T05:34:43;-3.60;99.90
20845;DHT22;10583;49.084;8.646;2023-03-01T05:37:11;-3.60;99.90
20845;DHT22;10583;49.084;8.646;2023-03-01T05:39:38;-3.70;99.90
20845;DHT22;10583;49.084;8.646;2023-03-01T05:42:10;-3.70;99.90
20845;DHT22;10583;49.084;8.646;2023-03-01T05:44:37;-3.70;99.90
20845;DHT22;10583;49.084;8.646;2023-03-01T05:47:04;-3.60;99.90
20845;DHT22;10583;49.084;8.646;2023-03-01T05:49:32;-3.50;99.90
20845;DHT22;10583;49.084;8.646;2023-03-01T05:52:00;-3.50;99.90
20845;DHT22;10583;49.084;8.646;2023-03-01T05:54:26;-3.50;99.90
20845;DHT22;10583;49.084;8.646;2023-03-01T05:56:53;-3.50;99.90
20845;DHT22;10583;49.084;8.646;2023-03-01T05:59:20;-3.60;99.90
20845;DHT22;10583;49.084;8.646;2023-03-01T06:01:47;-3.70;99.90
20845;DHT22;10583;49.084;8.646;2023-03-01T06:04:13;-3.60;99.90
20845;DHT22;10583;49.084;8.646;2023-03-01T06:06:41;-3.70;99.90
20845;DHT22;10583;49.084;8.646;2023-03-01T06:09:08;-3.70;99.90
20845;DHT22;10583;49.084;8.646;2023-03-01T06:11:35;-3.70;99.90
20845;DHT22;10583;49.084;8.646;2023-03-01T06:14:03;-3.70;99.90
20845;DHT22;10583;49.084;8.646;2023-03-01T06:16:29;-3.80;99.90
20845;DHT22;10583;49.084;8.646;2023-03-01T06:18:56;-3.70;99.90
20845;DHT22;10583;49.084;8.646;2023-03-01T06:21:23;-3.60;99.90
20845;DHT22;10583;49.084;8.646;2023-03-01T06:23:51;-3.50;99.90
20845;DHT22;10583;49.084;8.646;2023-03-01T06:26:18;-3.40;99.90
20845;DHT22;10583;49.084;8.646;2023-03-01T06:28:44;-3.30;99.90
20845;DHT22;10583;49.084;8.646;2023-03-01T06:31:11;-3.10;99.90
20845;DHT22;10583;49.084;8.646;2023-03-01T06:33:38;-3.00;99.90
20845;DHT22;10583;49.084;8.646;2023-03-01T06:36:06;-3.00;99.90
20845;DHT22;10583;49.084;8.646;2023-03-01T06:38:33;-2.90;99.90
20845;DHT22;10583;49.084;8.646;2023-03-01T06:41:01;-2.70;99.90
20845;DHT22;10583;49.084;8.646;2023-03-01T06:43:27;-2.40;99.90
20845;DHT22;10583;49.084;8.646;2023-03-01T06:45:55;-2.20;99.90
20845;DHT22;10583;49.084;8.646;2023-03-01T06:48:22;-2.10;99.90
20845;DHT22;10583;49.084;8.646;2023-03-01T06:50:48;-2.10;99.90
20845;DHT22;10583;49.084;8.646;2023-03-01T06:53:15;-2.10;99.90
20845;DHT22;10583;49.084;8.646;2023-03-01T06:55:42;-2.00;99.90
20845;DHT22;10583;49.084;8.646;2023-03-01T06:58:10;-1.90;99.90
20845;DHT22;10583;49.084;8.646;2023-03-01T07:00:37;-1.70;99.90
20845;DHT22;10583;49.084;8.646;2023-03-01T07:03:06;-1.50;99.90
20845;DHT22;10583;49.084;8.646;2023-03-01T07:05:33;-1.40;99.90
20845;DHT22;10583;49.084;8.646;2023-03-01T07:08:01;-1.30;99.90
20845;DHT22;10583;49.084;8.646;2023-03-01T07:10:27;-1.20;99.90
20845;DHT22;10583;49.084;8.646;2023-03-01T07:12:55;-1.10;99.90
20845;DHT22;10583;49.084;8.646;2023-03-01T07:15:23;-1.00;99.90
20845;DHT22;10583;49.084;8.646;2023-03-01T07:17:50;-0.90;99.90
20845;DHT22;10583;49.084;8.646;2023-03-01T07:20:17;-0.80;99.90
20845;DHT22;10583;49.084;8.646;2023-03-01T07:22:44;-0.70;99.90
20845;DHT22;10583;49.084;8.646;2023-03-01T07:25:11;-0.60;99.90
20845;DHT22;10583;49.084;8.646;2023-03-01T07:27:38;-0.50;99.90
20845;DHT22;10583;49.084;8.646;2023-03-01T07:30:05;-0.30;99.90
20845;DHT22;10583;49.084;8.646;2023-03-01T07:32:34;-0.20;99.90
20845;DHT22;10583;49.084;8.646;2023-03-01T07:35:00;-0.10;99.90
20845;DHT22;10583;49.084;8.646;2023-03-01T07:37:27;0.00;99.90
20845;DHT22;10583;49.084;8.646;2023-03-01T07:39:53;0.10;99.90
20845;DHT22;10583;49.084;8.646;2023-03-01T07:42:20;0.30;99.90
20845;DHT22;10583;49.084;8.646;2023-03-01T07:44:47;0.40;99.90
20845;DHT22;10583;49.084;8.646;2023-03-01T07:47:13;0.50;99.90
20845;DHT22;10583;49.084;8.646;2023-03-01T07:49:42;0.60;99.90
20845;DHT22;10583;49.084;8.646;2023-03-01T07:52:11;0.80;99.90
20845;DHT22;10583;49.084;8.646;2023-03-01T07:54:37;0.90;99.90
20845;DHT22;10583;49.084;8.646;2023-03-01T07:57:04;1.00;99.90
20845;DHT22;10583;49.084;8.646;2023-03-01T07:59:31;1.10;99.90
20845;DHT22;10583;49.084;8.646;2023-03-01T08:01:58;1.20;99.90
20845;DHT22;10583;49.084;8.646;2023-03-01T08:04:24;1.30;99.90
20845;DHT22;10583;49.084;8.646;2023-03-01T08:06:53;1.20;99.90
20845;DHT22;10583;49.084;8.646;2023-03-01T08:09:21;1.30;99.90
20845;DHT22;10583;49.084;8.646;2023-03-01T08:11:47;1.30;99.90
20845;DHT22;10583;49.084;8.646;2023-03-01T08:14:14;1.40;99.90
20845;DHT22;10583;49.084;8.646;2023-03-01T08:16:41;1.50;99.90
20845;DHT22;10583;49.084;8.646;2023-03-01T08:19:08;1.70;99.90
20845;DHT22;10583;49.084;8.646;2023-03-01T08:21:36;1.90;99.90
20845;DHT22;10583;49.084;8.646;2023-03-01T08:24:06;1.90;99.90
20845;DHT22;10583;49.084;8.646;2023-03-01T08:26:33;2.00;99.90
20845;DHT22;10583;49.084;8.646;2023-03-01T08:29:00;2.00;99.90
20845;DHT22;10583;49.084;8.646;2023-03-01T08:31:32;2.00;99.90
20845;DHT22;10583;49.084;8.646;2023-03-01T08:34:02;2.10;99.90
20845;DHT22;10583;49.084;8.646;2023-03-01T08:36:31;2.10;99.90
20845;DHT22;10583;49.084;8.646;2023-03-01T08:38:58;2.20;99.90
20845;DHT22;10583;49.084;8.646;2023-03-01T08:41:27;2.30;99.90
20845;DHT22;10583;49.084;8.646;2023-03-01T08:43:54;2.40;99.90
20845;DHT22;10583;49.084;8.646;2023-03-01T08:46:24;2.40;99.90
20845;DHT22;10583;49.084;8.646;2023-03-01T08:48:50;2.40;99.90
20845;DHT22;10583;49.084;8.646;2023-03-01T08:51:18;2.50;99.90
20845;DHT22;10583;49.084;8.646;2023-03-01T08:53:45;2.50;99.90
20845;DHT22;10583;49.084;8.646;2023-03-01T08:56:13;2.60;99.90
20845;DHT22;10583;49.084;8.646;2023-03-01T08:58:43;2.90;99.90
20845;DHT22;10583;49.084;8.646;2023-03-01T09:01:11;3.10;99.90
20845;DHT22;10583;49.084;8.646;2023-03-01T09:03:38;3.40;99.90
20845;DHT22;10583;49.084;8.646;2023-03-01T09:06:06;3.60;99.90
20845;DHT22;10583;49.084;8.646;2023-03-01T09:08:34;3.60;99.90
20845;DHT22;10583;49.084;8.646;2023-03-01T09:11:01;3.70;99.90
20845;DHT22;10583;49.084;8.646;2023-03-01T09:13:29;3.70;99.90
20845;DHT22;10583;49.084;8.646;2023-03-01T09:15:59;3.90;99.90
20845;DHT22;10583;49.084;8.646;2023-03-01T09:18:26;4.10;99.90
20845;DHT22;10583;49.084;8.646;2023-03-01T09:20:54;4.30;99.90
20845;DHT22;10583;49.084;8.646;2023-03-01T09:23:26;4.30;99.90
20845;DHT22;10583;49.084;8.646;2023-03-01T09:25:53;4.20;99.90
20845;DHT22;10583;49.084;8.646;2023-03-01T09:28:19;4.50;99.90
20845;DHT22;10583;49.084;8.646;2023-03-01T09:30:48;4.80;99.90
20845;DHT22;10583;49.084;8.646;2023-03-01T09:33:16;5.10;99.90
20845;DHT22;10583;49.084;8.646;2023-03-01T09:35:43;5.30;99.90
20845;DHT22;10583;49.084;8.646;2023-03-01T09:38:12;5.20;99.90
20845;DHT22;10583;49.084;8.646;2023-03-01T09:40:42;5.00;99.90
20845;DHT22;10583;49.084;8.646;2023-03-01T09:43:18;4.90;99.90
20845;DHT22;10583;49.084;8.646;2023-03-01T09:45:46;5.00;99.90
20845;DHT22;10583;49.084;8.646;2023-03-01T09:48:18;5.10;99.90
20845;DHT22;10583;49.084;8.646;2023-03-01T09:50:47;5.40;99.90
20845;DHT22;10583;49.084;8.646;2023-03-01T09:53:17;5.60;99.90
20845;DHT22;10583;49.084;8.646;2023-03-01T09:55:45;5.60;99.90
20845;DHT22;10583;49.084;8.646;2023-03-01T09:58:34;5.60;99.90
20845;DHT22;10583;49.084;8.646;2023-03-01T10:01:10;5.80;99.90
20845;DHT22;10583;49.084;8.646;2023-03-01T10:03:43;5.80;99.90
20845;DHT22;10583;49.084;8.646;2023-03-01T10:06:15;5.90;99.90
20845;DHT22;10583;49.084;8.646;2023-03-01T10:08:52;5.90;99.90
20845;DHT22;10583;49.084;8.646;2023-03-01T10:11:22;6.10;99.90
20845;DHT22;10583;49.084;8.646;2023-03-01T10:13:55;6.30;99.90
20845;DHT22;10583;49.084;8.646;2023-03-01T10:16:26;6.40;99.90
20845;DHT22;10583;49.084;8.646;2023-03-01T10:18:58;6.40;99.90
20845;DHT22;10583;49.084;8.646;2023-03-01T10:21:27;6.30;99.90
20845;DHT22;10583;49.084;8.646;2023-03-01T10:23:57;6.50;99.90
20845;DHT22;10583;49.084;8.646;2023-03-01T10:26:37;6.70;99.90
20845;DHT22;10583;49.084;8.646;2023-03-01T10:29:06;7.10;99.90
20845;DHT22;10583;49.084;8.646;2023-03-01T10:31:39;7.20;99.90
20845;DHT22;10583;49.084;8.646;2023-03-01T10:34:16;7.10;99.90
20845;DHT22;10583;49.084;8.646;2023-03-01T10:36:44;7.20;99.90
20845;DHT22;10583;49.084;8.646;2023-03-01T10:39:14;7.30;99.90
20845;DHT22;10583;49.084;8.646;2023-03-01T10:41:53;7.40;99.90
20845;DHT22;10583;49.084;8.646;2023-03-01T10:44:44;7.40;99.90
20845;DHT22;10583;49.084;8.646;2023-03-01T10:47:18;7.30;99.90
20845;DHT22;10583;49.084;8.646;2023-03-01T10:49:59;6.90;99.90
20845;DHT22;10583;49.084;8.646;2023-03-01T10:52:29;7.20;99.90
20845;DHT22;10583;49.084;8.646;2023-03-01T10:54:57;7.60;99.90
20845;DHT22;10583;49.084;8.646;2023-03-01T10:57:30;7.40;99.30
20845;DHT22;10583;49.084;8.646;2023-03-01T11:00:17;7.40;99.40
20845;DHT22;10583;49.084;8.646;2023-03-01T11:02:48;7.30;99.40
20845;DHT22;10583;49.084;8.646;2023-03-01T11:05:24;7.20;99.50
20845;DHT22;10583;49.084;8.646;2023-03-01T11:07:52;7.30;99.40
20845;DHT22;10583;49.084;8.646;2023-03-01T11:10:22;7.40;99.60
20845;DHT22;10583;49.084;8.646;2023-03-01T11:12:51;7.50;98.90
20845;DHT22;10583;49.084;8.646;2023-03-01T11:15:27;7.80;99.20
20845;DHT22;10583;49.084;8.646;2023-03-01T11:17:54;8.10;99.30
20845;DHT22;10583;49.084;8.646;2023-03-01T11:20:29;8.00;98.20
20845;DHT22;10583;49.084;8.646;2023-03-01T11:22:59;8.00;97.80
20845;DHT22;10583;49.084;8.646;2023-03-01T11:25:32;8.00;98.00
20845;DHT22;10583;49.084;8.646;2023-03-01T11:28:00;8.10;97.90
20845;DHT22;10583;49.084;8.646;2023-03-01T11:30:30;8.30;97.30
20845;DHT22;10583;49.084;8.646;2023-03-01T11:33:05;8.20;97.90
20845;DHT22;10583;49.084;8.646;2023-03-01T11:35:40;8.20;97.50
20845;DHT22;10583;49.084;8.646;2023-03-01T11:38:16;8.10;97.50
20845;DHT22;10583;49.084;8.646;2023-03-01T11:40:47;8.30;97.30
20845;DHT22;10583;49.084;8.646;2023-03-01T11:43:23;8.40;97.10
20845;DHT22;10583;49.084;8.646;2023-03-01T11:46:11;8.60;97.80
20845;DHT22;10583;49.084;8.646;2023-03-01T11:48:55;8.10;96.50
20845;DHT22;10583;49.084;8.646;2023-03-01T11:51:37;8.00;97.70
20845;DHT22;10583;49.084;8.646;2023-03-01T11:54:13;8.30;96.90
20845;DHT22;10583;49.084;8.646;2023-03-01T11:56:48;8.20;97.50
20845;DHT22;10583;49.084;8.646;2023-03-01T12:03:02;8.40;97.40
20845;DHT22;10583;49.084;8.646;2023-03-01T12:06:12;8.50;96.40
20845;DHT22;10583;49.084;8.646;2023-03-01T12:08:55;8.70;96.80
20845;DHT22;10583;49.084;8.646;2023-03-01T12:11:34;8.50;96.90
20845;DHT22;10583;49.084;8.646;2023-03-01T12:20:20;8.80;96.60
20845;DHT22;10583;49.084;8.646;2023-03-01T12:25:58;8.90;95.90
20845;DHT22;10583;49.084;8.646;2023-03-01T12:28:46;9.10;96.80
20845;DHT22;10583;49.084;8.646;2023-03-01T12:31:44;9.30;96.70
20845;DHT22;10583;49.084;8.646;2023-03-01T12:34:28;9.20;95.10
20845;DHT22;10583;49.084;8.646;2023-03-01T12:37:22;8.90;95.60
20845;DHT22;10583;49.084;8.646;2023-03-01T12:40:03;8.90;95.60
20845;DHT22;10583;49.084;8.646;2023-03-01T12:42:47;8.90;95.70
20845;DHT22;10583;49.084;8.646;2023-03-01T12:45:34;8.80;95.60
20845;DHT22;10583;49.084;8.646;2023-03-01T12:48:20;8.60;96.00
20845;DHT22;10583;49.084;8.646;2023-03-01T12:50:53;8.60;96.70
20845;DHT22;10583;49.084;8.646;2023-03-01T12:53:24;8.90;96.70
20845;DHT22;10583;49.084;8.646;2023-03-01T12:55:53;8.80;95.50
20845;DHT22;10583;49.084;8.646;2023-03-01T12:58:28;8.90;95.80
20845;DHT22;10583;49.084;8.646;2023-03-01T13:01:05;9.10;96.30
20845;DHT22;10583;49.084;8.646;2023-03-01T13:03:55;9.20;95.00
20845;DHT22;10583;49.084;8.646;2023-03-01T13:06:31;8.90;95.70
20845;DHT22;10583;49.084;8.646;2023-03-01T13:09:05;8.70;95.80
20845;DHT22;10583;49.084;8.646;2023-03-01T13:11:34;8.70;96.20
20845;DHT22;10583;49.084;8.646;2023-03-01T13:14:36;8.80;96.00
20845;DHT22;10583;49.084;8.646;2023-03-01T13:17:04;8.80;96.30
20845;DHT22;10583;49.084;8.646;2023-03-01T13:19:30;9.00;96.30
20845;DHT22;10583;49.084;8.646;2023-03-01T13:22:27;8.90;95.70
20845;DHT22;10583;49.084;8.646;2023-03-01T13:25:02;9.00;96.00
20845;DHT22;10583;49.084;8.646;2023-03-01T13:27:29;8.80;96.00
20845;DHT22;10583;49.084;8.646;2023-03-01T13:29:59;8.90;95.90
20845;DHT22;10583;49.084;8.646;2023-03-01T13:32:32;8.70;95.90
20845;DHT22;10583;49.084;8.646;2023-03-01T13:34:59;8.70;95.90
20845;DHT22;10583;49.084;8.646;2023-03-01T13:37:35;8.50;96.70
20845;DHT22;10583;49.084;8.646;2023-03-01T13:42:56;8.60;97.00
20845;DHT22;10583;49.084;8.646;2023-03-01T13:45:34;8.60;96.40
20845;DHT22;10583;49.084;8.646;2023-03-01T13:48:08;8.50;96.40
20845;DHT22;10583;49.084;8.646;2023-03-01T13:50:43;8.40;97.00
20845;DHT22;10583;49.084;8.646;2023-03-01T13:53:15;8.50;96.80
20845;DHT22;10583;49.084;8.646;2023-03-01T13:55:46;8.50;96.70
20845;DHT22;10583;49.084;8.646;2023-03-01T13:58:22;8.40;96.80
20845;DHT22;10583;49.084;8.646;2023-03-01T14:00:58;8.20;97.20
20845;DHT22;10583;49.084;8.646;2023-03-01T14:03:26;8.10;97.90
20845;DHT22;10583;49.084;8.646;2023-03-01T14:06:02;8.20;97.50
20845;DHT22;10583;49.084;8.646;2023-03-01T14:08:32;8.10;97.70
20845;DHT22;10583;49.084;8.646;2023-03-01T14:17:18;8.10;97.50
20845;DHT22;10583;49.084;8.646;2023-03-01T14:19:48;8.30;97.30
20845;DHT22;10583;49.084;8.646;2023-03-01T14:22:23;8.10;97.80
20845;DHT22;10583;49.084;8.646;2023-03-01T14:24:54;8.00;97.60
20845;DHT22;10583;49.084;8.646;2023-03-01T14:27:23;8.00;98.00
20845;DHT22;10583;49.084;8.646;2023-03-01T14:29:56;7.90;97.50
20845;DHT22;10583;49.084;8.646;2023-03-01T14:32:27;7.90;98.20
20845;DHT22;10583;49.084;8.646;2023-03-01T14:34:56;7.90;97.60
20845;DHT22;10583;49.084;8.646;2023-03-01T14:37:25;7.80;97.70
20845;DHT22;10583;49.084;8.646;2023-03-01T14:39:53;7.90;97.80
20845;DHT22;10583;49.084;8.646;2023-03-01T14:42:22;7.80;97.70
20845;DHT22;10583;49.084;8.646;2023-03-01T14:44:51;7.70;97.50
20845;DHT22;10583;49.084;8.646;2023-03-01T14:47:27;7.60;97.70
20845;DHT22;10583;49.084;8.646;2023-03-01T14:49:58;7.70;98.00
20845;DHT22;10583;49.084;8.646;2023-03-01T14:52:31;7.70;98.00
20845;DHT22;10583;49.084;8.646;2023-03-01T14:55:00;7.70;98.40
20845;DHT22;10583;49.084;8.646;2023-03-01T14:57:28;7.70;98.40
20845;DHT22;10583;49.084;8.646;2023-03-01T14:59:58;7.80;98.00
20845;DHT22;10583;49.084;8.646;2023-03-01T15:02:28;7.80;97.70
20845;DHT22;10583;49.084;8.646;2023-03-01T15:04:58;7.80;97.90
20845;DHT22;10583;49.084;8.646;2023-03-01T15:07:28;7.80;97.90
20845;DHT22;10583;49.084;8.646;2023-03-01T15:09:56;7.70;97.70
20845;DHT22;10583;49.084;8.646;2023-03-01T15:12:37;7.70;97.30
20845;DHT22;10583;49.084;8.646;2023-03-01T15:15:23;7.60;97.80
20845;DHT22;10583;49.084;8.646;2023-03-01T15:17:59;7.60;98.00
20845;DHT22;10583;49.084;8.646;2023-03-01T15:20:28;7.50;98.20
20845;DHT22;10583;49.084;8.646;2023-03-01T15:22:57;7.50;98.00
20845;DHT22;10583;49.084;8.646;2023-03-01T15:25:26;7.60;97.90
20845;DHT22;10583;49.084;8.646;2023-03-01T15:27:55;7.60;98.50
20845;DHT22;10583;49.084;8.646;2023-03-01T15:30:25;7.60;98.20
20845;DHT22;10583;49.084;8.646;2023-03-01T15:33:17;7.60;97.60
20845;DHT22;10583;49.084;8.646;2023-03-01T15:35:46;7.50;98.10
20845;DHT22;10583;49.084;8.646;2023-03-01T15:38:29;7.60;98.00
20845;DHT22;10583;49.084;8.646;2023-03-01T15:40:57;7.50;98.00
20845;DHT22;10583;49.084;8.646;2023-03-01T15:43:38;7.50;97.70
20845;DHT22;10583;49.084;8.646;2023-03-01T15:46:16;7.40;98.20
20845;DHT22;10583;49.084;8.646;2023-03-01T15:48:46;7.30;98.20
20845;DHT22;10583;49.084;8.646;2023-03-01T15:51:15;7.30;98.20
20845;DHT22;10583;49.084;8.646;2023-03-01T15:53:51;7.30;98.20
20845;DHT22;10583;49.084;8.646;2023-03-01T15:56:19;7.20;98.60
20845;DHT22;10583;49.084;8.646;2023-03-01T15:58:45;7.20;98.60
20845;DHT22;10583;49.084;8.646;2023-03-01T16:01:13;7.20;98.80
20845;DHT22;10583;49.084;8.646;2023-03-01T16:03:40;7.20;98.90
20845;DHT22;10583;49.084;8.646;2023-03-01T16:06:10;7.20;98.80
20845;DHT22;10583;49.084;8.646;2023-03-01T16:08:37;7.20;98.90
20845;DHT22;10583;49.084;8.646;2023-03-01T16:11:13;7.20;98.70
20845;DHT22;10583;49.084;8.646;2023-03-01T16:13:39;7.10;98.90
20845;DHT22;10583;49.084;8.646;2023-03-01T16:16:08;7.00;99.00
20845;DHT22;10583;49.084;8.646;2023-03-01T16:18:37;7.00;99.00